This is the latest recevied weather packets stored in our database for station/object G4GJR. If no packets are shown the sender has not sent any weather packets the latest 10 day(s).
| Time | Temp. | Humidity | Pressure | Rain* | Wind** | Luminosity | Snow |
|---|---|---|---|---|---|---|---|
| 1777858204 | 11.67° C | 92% | 1012.7 hPa | 0 mm | - | - | - |
| 1777854604 | 11.67° C | 91% | 1012.6 hPa | 2.29 mm | - | - | - |
| 1777848304 | 11.67° C | 89% | 1012 hPa | 0 mm | - | - | - |
| 1777845604 | 12.22° C | 87% | 1011.7 hPa | 0 mm | - | - | - |
| 1777843806 | 13.33° C | 86% | 1011.5 hPa | 0 mm | - | - | - |
| 1777841104 | 13.89° C | 81% | 1011.1 hPa | 0 mm | - | - | - |
| 1777840205 | 13.89° C | 80% | 1010.8 hPa | 0 mm | - | - | - |
| 1777834804 | 16.67° C | 70% | 1009.9 hPa | 0 mm | - | - | - |
| 1777830304 | 17.78° C | 64% | 1009.4 hPa | 0 mm | - | - | - |
| 1777828504 | 17.22° C | 66% | 1009.4 hPa | 0 mm | - | - | - |
| 1777820404 | 17.22° C | 66% | 1009.5 hPa | 0 mm | - | - | - |
| 1777819504 | 16.67° C | 69% | 1009.6 hPa | 0 mm | - | - | - |
| 1777815903 | 17.22° C | 67% | 1009.7 hPa | 0 mm | - | - | - |
| 1777815004 | 17.22° C | 66% | 1009.8 hPa | 0 mm | - | - | - |
| 1777813204 | 16.67° C | 68% | 1009.9 hPa | 0 mm | - | - | - |
| 1777800605 | 13.33° C | 83% | 1009.9 hPa | 0 mm | - | - | - |
| 1777797904 | 12.78° C | 85% | 1010 hPa | 0 mm | - | - | - |
| 1777780804 | 12.22° C | 90% | 1009 hPa | 0 mm | - | - | - |
| 1777764606 | 13.33° C | 92% | 1010.4 hPa | 0 mm | - | - | - |
| 1777763704 | 13.89° C | 92% | 1010.5 hPa | 0 mm | - | - | - |
| 1777761004 | 13.89° C | 93% | 1010.6 hPa | 0 mm | - | - | - |
| 1777759204 | 13.89° C | 92% | 1010.8 hPa | 0 mm | - | - | - |
| 1777755604 | 13.89° C | 92% | 1011.3 hPa | 1.02 mm | - | - | - |
| 1777749304 | 13.89° C | 90% | 1011.7 hPa | 0.25 mm | - | - | - |
| 1777736704 | 22.22° C | 49% | 1012.8 hPa | 0 mm | - | - | - |
* Rain latest hour (hover to see other rain measurements)
** Current wind speed in m/s (hover to see current wind gust speed)